Time;durP1;ratioP1;P1;durP2;ratioP2;P2;SDS_P1;SDS_P2;PMS_P1;PMS_P2;Temp;Humidity;BMP_temperature;BMP_pressure;BME280_temperature;BME280_humidity;BME280_pressure;Samples;Min_cycle;Max_cycle;Signal;HPM_P1;HPM_P2
2022/11/14 00:00:33;;;;;;;32.22;16.35;;;;;;;;;;5005932;28;20042;-70
2022/11/14 00:02:59;;;;;;;28.30;15.70;;;;;;;;;;5010305;28;20675;-71
2022/11/14 00:05:25;;;;;;;28.05;15.38;;;;;;;;;;5013416;28;20511;-71
2022/11/14 00:07:50;;;;;;;28.90;15.93;;;;;;;;;;5012014;28;20041;-70
2022/11/14 00:10:15;;;;;;;27.70;15.27;;;;;;;;;;5010610;28;20429;-70
2022/11/14 00:12:41;;;;;;;28.75;15.25;;;;;;;;;;5013054;28;20053;-70
2022/11/14 00:15:07;;;;;;;28.60;15.43;;;;;;;;;;5010064;28;20040;-70
2022/11/14 00:17:32;;;;;;;29.40;14.85;;;;;;;;;;5007879;28;20128;-70
2022/11/14 00:19:57;;;;;;;28.50;15.70;;;;;;;;;;5010647;28;20083;-70
2022/11/14 00:22:22;;;;;;;29.08;15.68;;;;;;;;;;4996053;28;20034;-70
2022/11/14 00:24:48;;;;;;;27.67;15.80;;;;;;;;;;5007372;28;20026;-70
2022/11/14 00:27:13;;;;;;;26.70;14.37;;;;;;;;;;5007426;28;20148;-70
2022/11/14 00:29:38;;;;;;;30.88;15.95;;;;;;;;;;5007088;28;20080;-70
2022/11/14 00:32:04;;;;;;;28.25;15.40;;;;;;;;;;5007587;28;20062;-70
2022/11/14 00:34:29;;;;;;;27.20;14.68;;;;;;;;;;5015307;28;20061;-69
2022/11/14 00:36:54;;;;;;;33.27;15.67;;;;;;;;;;5012005;28;20480;-71
2022/11/14 00:39:19;;;;;;;34.60;16.63;;;;;;;;;;5004266;28;20492;-69
2022/11/14 00:41:45;;;;;;;28.33;14.53;;;;;;;;;;5014022;28;20723;-69
2022/11/14 00:44:10;;;;;;;29.57;15.73;;;;;;;;;;5015617;28;20347;-70
2022/11/14 00:46:35;;;;;;;25.17;14.65;;;;;;;;;;5004067;28;20025;-70
2022/11/14 00:49:00;;;;;;;25.90;14.65;;;;;;;;;;4991916;28;20079;-70
2022/11/14 00:51:26;;;;;;;28.87;15.37;;;;;;;;;;5014335;28;20026;-70
2022/11/14 00:53:51;;;;;;;28.90;15.18;;;;;;;;;;5011632;28;20121;-69
2022/11/14 00:56:16;;;;;;;26.60;14.35;;;;;;;;;;5009837;28;20049;-70
2022/11/14 00:58:42;;;;;;;27.13;14.27;;;;;;;;;;4991003;28;20108;-70
2022/11/14 01:01:07;;;;;;;26.87;13.83;;;;;;;;;;5012347;28;20048;-70
2022/11/14 01:03:32;;;;;;;25.83;14.27;;;;;;;;;;5010161;28;20077;-69
2022/11/14 01:06:02;;;;;;;29.67;14.63;;;;;;;;;;5004760;28;20276;-70
2022/11/14 01:08:27;;;;;;;;;;;;;;;;;;5010724;28;20037;-70
2022/11/14 01:10:52;;;;;;;25.30;13.20;;;;;;;;;;5012917;28;19913;-70
2022/11/14 01:13:18;;;;;;;28.33;14.30;;;;;;;;;;5010729;28;20044;-70
2022/11/14 01:15:47;;;;;;;29.25;15.60;;;;;;;;;;5015989;28;20025;-71
2022/11/14 01:18:14;;;;;;;27.33;14.40;;;;;;;;;;5012282;28;20514;-70
2022/11/14 01:20:40;;;;;;;29.23;14.20;;;;;;;;;;5009143;28;20129;-70
2022/11/14 01:23:06;;;;;;;26.45;14.00;;;;;;;;;;5011701;28;20026;-70
2022/11/14 01:25:32;;;;;;;26.17;14.00;;;;;;;;;;5009304;28;20034;-70
2022/11/14 01:27:57;;;;;;;24.30;13.52;;;;;;;;;;5001987;28;20046;-71
2022/11/14 01:30:22;;;;;;;25.70;13.50;;;;;;;;;;4996798;28;20021;-69
2022/11/14 01:32:48;;;;;;;23.63;13.20;;;;;;;;;;5003161;28;20032;-70
2022/11/14 01:35:13;;;;;;;24.80;13.67;;;;;;;;;;5010049;28;20149;-70
2022/11/14 01:37:38;;;;;;;24.10;13.50;;;;;;;;;;5010265;28;20290;-70
2022/11/14 01:40:04;;;;;;;25.20;13.97;;;;;;;;;;5006055;28;20029;-70
2022/11/14 01:42:29;;;;;;;25.40;13.30;;;;;;;;;;5011192;28;20049;-69
2022/11/14 01:44:54;;;;;;;27.85;14.18;;;;;;;;;;5006412;28;20691;-69
2022/11/14 01:47:21;;;;;;;28.75;14.18;;;;;;;;;;5006620;28;20108;-70
2022/11/14 01:49:48;;;;;;;26.52;14.40;;;;;;;;;;5008374;28;20033;-70
2022/11/14 01:52:14;;;;;;;24.85;13.60;;;;;;;;;;5014835;28;20026;-70
2022/11/14 01:54:42;;;;;;;26.17;14.27;;;;;;;;;;5011587;28;20029;-70
2022/11/14 01:57:09;;;;;;;24.83;13.95;;;;;;;;;;5005552;28;20030;-70
2022/11/14 01:59:36;;;;;;;27.42;14.35;;;;;;;;;;5006943;28;20527;-71
2022/11/14 02:02:04;;;;;;;25.83;13.85;;;;;;;;;;5009874;28;20112;-70
2022/11/14 02:04:34;;;;;;;27.17;14.35;;;;;;;;;;5010593;28;20096;-70
2022/11/14 02:07:01;;;;;;;25.80;13.68;;;;;;;;;;5008799;28;20105;-71
2022/11/14 02:09:27;;;;;;;25.02;13.30;;;;;;;;;;5009007;28;20034;-70
2022/11/14 02:11:53;;;;;;;28.13;13.95;;;;;;;;;;5009410;28;20069;-70
2022/11/14 02:14:19;;;;;;;27.95;14.43;;;;;;;;;;5001332;28;20110;-70
2022/11/14 02:16:44;;;;;;;27.55;14.27;;;;;;;;;;5010291;28;20467;-70
2022/11/14 02:19:09;;;;;;;27.77;14.18;;;;;;;;;;5005787;28;20543;-70
2022/11/14 02:21:34;;;;;;;25.87;13.87;;;;;;;;;;5008041;28;20630;-70
2022/11/14 02:24:00;;;;;;;27.00;14.27;;;;;;;;;;5006917;28;20283;-69
2022/11/14 02:26:25;;;;;;;27.13;14.02;;;;;;;;;;5008677;28;20476;-70
2022/11/14 02:28:50;;;;;;;25.50;13.87;;;;;;;;;;5006211;28;20045;-71
2022/11/14 02:31:16;;;;;;;25.50;14.17;;;;;;;;;;5003684;28;20366;-70
2022/11/14 02:33:42;;;;;;;26.70;14.20;;;;;;;;;;5011812;28;20302;-70
2022/11/14 02:36:07;;;;;;;25.08;13.63;;;;;;;;;;4992182;28;20113;-70
2022/11/14 02:38:32;;;;;;;27.08;14.48;;;;;;;;;;5005913;28;21093;-70
2022/11/14 02:40:58;;;;;;;27.55;14.60;;;;;;;;;;5008060;28;20037;-70
2022/11/14 02:43:24;;;;;;;25.92;13.65;;;;;;;;;;5008657;28;20037;-70
2022/11/14 02:45:49;;;;;;;27.73;14.00;;;;;;;;;;5009219;28;20391;-71
2022/11/14 02:48:14;;;;;;;25.87;13.37;;;;;;;;;;5004098;28;20396;-70
2022/11/14 02:50:39;;;;;;;28.73;15.30;;;;;;;;;;5008644;28;20479;-68
2022/11/14 02:53:05;;;;;;;34.30;16.77;;;;;;;;;;4988958;28;20384;-70
2022/11/14 02:55:30;;;;;;;31.83;16.87;;;;;;;;;;5010187;28;20279;-70
2022/11/14 02:57:55;;;;;;;26.63;14.27;;;;;;;;;;5012640;28;20804;-69
2022/11/14 03:00:20;;;;;;;26.73;14.70;;;;;;;;;;4999556;28;20049;-70
2022/11/14 03:02:46;;;;;;;26.20;14.17;;;;;;;;;;5007828;28;20104;-70
2022/11/14 03:05:11;;;;;;;26.73;14.75;;;;;;;;;;4989326;28;20298;-70
2022/11/14 03:07:36;;;;;;;27.17;15.30;;;;;;;;;;5006999;28;20049;-70
2022/11/14 03:10:02;;;;;;;25.15;13.93;;;;;;;;;;5006117;28;20764;-71
2022/11/14 03:12:27;;;;;;;25.30;13.98;;;;;;;;;;5006555;28;20042;-70
2022/11/14 03:14:53;;;;;;;27.57;13.90;;;;;;;;;;5006649;28;20495;-70
2022/11/14 03:17:18;;;;;;;26.47;14.37;;;;;;;;;;5002123;28;20279;-70
2022/11/14 03:19:43;;;;;;;28.52;14.27;;;;;;;;;;4990393;28;20354;-70
2022/11/14 03:22:08;;;;;;;28.63;14.67;;;;;;;;;;5003501;28;20024;-70
2022/11/14 03:24:34;;;;;;;26.50;13.63;;;;;;;;;;5009436;28;20057;-70
2022/11/14 03:26:59;;;;;;;26.50;13.98;;;;;;;;;;5005073;28;20317;-70
2022/11/14 03:29:24;;;;;;;25.35;13.50;;;;;;;;;;4988845;28;20026;-70
2022/11/14 03:31:49;;;;;;;25.67;14.03;;;;;;;;;;5006629;28;20022;-70
2022/11/14 03:34:15;;;;;;;26.00;14.87;;;;;;;;;;5005049;28;20267;-70
2022/11/14 03:36:40;;;;;;;25.00;13.87;;;;;;;;;;5007076;28;20308;-68
2022/11/14 03:39:05;;;;;;;26.00;14.73;;;;;;;;;;5009383;28;20026;-70
2022/11/14 03:41:31;;;;;;;24.77;13.98;;;;;;;;;;5002094;28;20084;-70
2022/11/14 03:43:56;;;;;;;25.27;14.23;;;;;;;;;;5010178;28;20534;-69
2022/11/14 03:46:21;;;;;;;27.77;15.02;;;;;;;;;;5008124;28;20370;-70
2022/11/14 03:48:46;;;;;;;24.23;13.27;;;;;;;;;;5011526;28;20030;-70
2022/11/14 03:51:12;;;;;;;24.20;13.38;;;;;;;;;;5011182;28;20330;-70
2022/11/14 03:53:37;;;;;;;27.70;14.40;;;;;;;;;;5005621;28;20030;-70
2022/11/14 03:56:02;;;;;;;28.45;13.80;;;;;;;;;;5007190;28;20372;-70
2022/11/14 03:58:28;;;;;;;24.23;12.93;;;;;;;;;;4992040;28;20527;-70
2022/11/14 04:00:54;;;;;;;25.10;13.38;;;;;;;;;;5008708;28;20042;-70
2022/11/14 04:03:20;;;;;;;25.17;13.40;;;;;;;;;;5004116;28;20053;-69
2022/11/14 04:05:45;;;;;;;25.42;13.45;;;;;;;;;;5004743;28;20054;-70
2022/11/14 04:08:10;;;;;;;25.77;13.80;;;;;;;;;;5011079;28;20041;-70
2022/11/14 04:10:36;;;;;;;27.92;13.23;;;;;;;;;;5007939;28;20638;-71
2022/11/14 04:13:03;;;;;;;26.85;13.95;;;;;;;;;;5009788;28;20044;-70
2022/11/14 04:15:28;;;;;;;29.17;14.20;;;;;;;;;;5007289;28;20403;-70
2022/11/14 04:17:53;;;;;;;24.67;13.50;;;;;;;;;;4985037;28;20033;-70
2022/11/14 04:20:18;;;;;;;25.37;14.50;;;;;;;;;;5004857;28;20470;-70
2022/11/14 04:22:44;;;;;;;25.60;12.90;;;;;;;;;;5012349;28;20068;-70
2022/11/14 04:25:10;;;;;;;24.55;13.02;;;;;;;;;;5010287;28;20283;-70
2022/11/14 04:27:35;;;;;;;24.37;12.63;;;;;;;;;;4993908;28;20035;-70
2022/11/14 04:30:00;;;;;;;24.73;13.77;;;;;;;;;;5011289;28;20779;-70
2022/11/14 04:32:25;;;;;;;26.88;13.90;;;;;;;;;;5008021;28;20287;-70
2022/11/14 04:34:51;;;;;;;27.27;14.30;;;;;;;;;;4989948;28;20504;-70
2022/11/14 04:37:16;;;;;;;27.98;13.57;;;;;;;;;;5009527;28;20763;-70
2022/11/14 04:39:41;;;;;;;26.03;14.10;;;;;;;;;;5010457;28;20033;-70
2022/11/14 04:42:06;;;;;;;24.87;12.97;;;;;;;;;;4994993;28;20021;-70
2022/11/14 04:44:31;;;;;;;26.70;13.67;;;;;;;;;;5012734;28;20034;-70
2022/11/14 04:46:57;;;;;;;25.00;13.90;;;;;;;;;;5011176;28;20030;-69
2022/11/14 04:49:22;;;;;;;27.07;14.50;;;;;;;;;;4987498;28;20286;-69
2022/11/14 04:51:47;;;;;;;29.17;14.02;;;;;;;;;;5010408;28;20033;-70
2022/11/14 04:54:13;;;;;;;24.58;13.77;;;;;;;;;;5008170;28;20395;-69
2022/11/14 04:56:38;;;;;;;27.60;13.23;;;;;;;;;;5011401;28;20441;-69
2022/11/14 04:59:03;;;;;;;26.17;13.30;;;;;;;;;;5009126;28;20430;-68
2022/11/14 05:01:30;;;;;;;25.55;13.27;;;;;;;;;;5008404;28;20642;-70
2022/11/14 05:03:55;;;;;;;24.93;13.37;;;;;;;;;;5012799;28;20109;-70
2022/11/14 05:06:20;;;;;;;24.83;13.40;;;;;;;;;;5012239;28;20298;-70
2022/11/14 05:08:47;;;;;;;25.13;13.47;;;;;;;;;;5004054;28;20030;-70
2022/11/14 05:11:16;;;;;;;22.60;12.90;;;;;;;;;;4988161;28;20132;-69
2022/11/14 05:13:41;;;;;;;22.27;12.32;;;;;;;;;;5003407;28;20617;-69
2022/11/14 05:16:07;;;;;;;27.35;13.30;;;;;;;;;;4991833;28;20117;-68
2022/11/14 05:18:32;;;;;;;25.67;13.33;;;;;;;;;;5006028;28;20056;-69
2022/11/14 05:20:58;;;;;;;27.20;13.53;;;;;;;;;;5011097;28;20674;-69
2022/11/14 05:23:23;;;;;;;23.77;13.70;;;;;;;;;;5011748;28;20036;-69
2022/11/14 05:26:02;;;;;;;28.77;13.33;;;;;;;;;;5007579;28;20112;-71
2022/11/14 05:28:27;;;;;;;24.20;12.77;;;;;;;;;;5007548;28;20286;-71
2022/11/14 05:30:52;;;;;;;25.90;11.97;;;;;;;;;;5013338;28;20037;-70
2022/11/14 05:33:18;;;;;;;23.83;12.13;;;;;;;;;;5004708;28;20118;-70
2022/11/14 05:35:43;;;;;;;24.67;12.63;;;;;;;;;;5007605;28;20025;-70
2022/11/14 05:38:08;;;;;;;25.13;14.10;;;;;;;;;;5011162;28;20034;-71
2022/11/14 05:40:33;;;;;;;24.20;12.93;;;;;;;;;;5014925;28;20064;-71
2022/11/14 05:42:58;;;;;;;25.87;13.53;;;;;;;;;;5011050;28;20819;-71
2022/11/14 05:45:24;;;;;;;31.13;14.17;;;;;;;;;;5007912;28;20567;-70
2022/11/14 05:47:52;;;;;;;35.85;14.80;;;;;;;;;;5012451;28;20492;-70
2022/11/14 05:50:17;;;;;;;27.92;14.52;;;;;;;;;;5004441;28;20037;-70
2022/11/14 05:52:43;;;;;;;24.80;13.73;;;;;;;;;;5005088;28;20034;-70
2022/11/14 05:55:08;;;;;;;28.87;13.40;;;;;;;;;;5005669;28;20037;-70
2022/11/14 05:57:34;;;;;;;24.98;12.50;;;;;;;;;;5011159;28;20065;-70
2022/11/14 05:59:59;;;;;;;27.00;13.75;;;;;;;;;;5009731;28;20144;-71
2022/11/14 06:02:25;;;;;;;26.23;13.77;;;;;;;;;;5012162;28;20527;-71
2022/11/14 06:04:50;;;;;;;27.73;13.90;;;;;;;;;;5010879;28;20282;-71
2022/11/14 06:07:15;;;;;;;22.20;12.60;;;;;;;;;;5009322;28;20034;-71
2022/11/14 06:09:40;;;;;;;26.27;13.37;;;;;;;;;;5011629;28;20017;-71
2022/11/14 06:12:06;;;;;;;28.50;14.47;;;;;;;;;;5007783;28;20062;-70
2022/11/14 06:14:32;;;;;;;28.58;13.18;;;;;;;;;;5010272;28;20749;-70
2022/11/14 06:16:57;;;;;;;27.88;14.00;;;;;;;;;;5006445;28;20048;-70
2022/11/14 06:19:22;;;;;;;25.90;13.37;;;;;;;;;;5008502;28;20045;-71
2022/11/14 06:21:47;;;;;;;23.87;12.57;;;;;;;;;;5010139;28;20287;-70
2022/11/14 06:24:13;;;;;;;25.90;13.23;;;;;;;;;;5009021;28;20383;-70
2022/11/14 06:26:38;;;;;;;27.67;13.80;;;;;;;;;;5007309;28;20031;-70
2022/11/14 06:29:03;;;;;;;28.23;14.67;;;;;;;;;;5008572;28;20387;-70
2022/11/14 06:31:28;;;;;;;29.05;14.55;;;;;;;;;;4990326;28;20697;-71
2022/11/14 06:33:55;;;;;;;28.33;14.10;;;;;;;;;;5004125;28;20104;-70
2022/11/14 06:36:20;;;;;;;30.45;14.85;;;;;;;;;;5005244;28;20279;-70
2022/11/14 06:38:46;;;;;;;25.13;13.98;;;;;;;;;;5006666;28;20385;-70
2022/11/14 06:41:12;;;;;;;26.00;13.50;;;;;;;;;;5006590;28;20056;-69
2022/11/14 06:43:38;;;;;;;26.83;13.35;;;;;;;;;;5008719;28;20267;-70
2022/11/14 06:46:04;;;;;;;26.70;13.68;;;;;;;;;;5005768;28;20030;-70
2022/11/14 06:48:30;;;;;;;27.02;13.57;;;;;;;;;;5009083;28;20025;-69
2022/11/14 06:50:56;;;;;;;29.45;14.50;;;;;;;;;;5011475;28;20111;-70
2022/11/14 06:53:21;;;;;;;25.92;13.30;;;;;;;;;;5009657;28;20072;-70
2022/11/14 06:55:57;;;;;;;30.35;14.05;;;;;;;;;;4995084;28;20054;-70
2022/11/14 06:58:26;;;;;;;26.42;13.88;;;;;;;;;;4985000;28;20030;-70
2022/11/14 07:00:52;;;;;;;23.63;12.77;;;;;;;;;;4995080;28;20054;-69
2022/11/14 07:03:17;;;;;;;25.67;12.60;;;;;;;;;;5008294;28;20037;-70
2022/11/14 07:05:42;;;;;;;26.77;12.40;;;;;;;;;;5009080;28;20382;-70
2022/11/14 07:08:08;;;;;;;23.70;13.37;;;;;;;;;;5003121;28;20184;-70
2022/11/14 07:10:33;;;;;;;23.65;12.02;;;;;;;;;;5009148;28;20030;-70
2022/11/14 07:12:58;;;;;;;22.60;12.52;;;;;;;;;;5006563;28;20079;-70
2022/11/14 07:15:23;;;;;;;20.33;12.00;;;;;;;;;;5008535;28;20038;-71
2022/11/14 07:17:48;;;;;;;25.30;12.33;;;;;;;;;;5007009;28;20041;-71
2022/11/14 07:20:14;;;;;;;24.37;12.87;;;;;;;;;;5005927;28;20034;-71
2022/11/14 07:22:39;;;;;;;22.73;12.65;;;;;;;;;;5008142;28;20100;-69
2022/11/14 07:25:05;;;;;;;25.27;12.80;;;;;;;;;;5007701;28;20048;-70
2022/11/14 07:27:30;;;;;;;24.52;12.90;;;;;;;;;;5000547;28;20279;-69
2022/11/14 07:29:55;;;;;;;22.87;12.13;;;;;;;;;;5007314;28;20034;-70
2022/11/14 07:32:20;;;;;;;22.98;11.93;;;;;;;;;;5008507;28;20287;-70
2022/11/14 07:34:46;;;;;;;19.10;11.03;;;;;;;;;;5009926;28;20490;-70
2022/11/14 07:37:11;;;;;;;19.53;11.17;;;;;;;;;;5010282;28;20275;-71
2022/11/14 07:39:36;;;;;;;18.73;10.50;;;;;;;;;;5010832;28;20279;-69
2022/11/14 07:42:01;;;;;;;19.67;11.27;;;;;;;;;;5005306;28;20346;-70
2022/11/14 07:44:27;;;;;;;22.75;11.65;;;;;;;;;;4993026;28;20137;-70
2022/11/14 07:46:52;;;;;;;20.87;10.73;;;;;;;;;;5007934;28;20503;-70
2022/11/14 07:49:17;;;;;;;21.90;10.77;;;;;;;;;;5007395;28;20034;-70
2022/11/14 07:51:42;;;;;;;20.77;11.53;;;;;;;;;;5007800;28;20283;-70
2022/11/14 07:54:12;;;;;;;20.27;10.87;;;;;;;;;;5008667;28;21461;-71
2022/11/14 07:56:37;;;;;;;25.27;12.50;;;;;;;;;;5009684;28;20018;-70
2022/11/14 07:59:02;;;;;;;21.90;11.17;;;;;;;;;;5010617;28;20024;-70
2022/11/14 08:01:27;;;;;;;19.70;11.00;;;;;;;;;;5009098;28;20642;-69
2022/11/14 08:03:53;;;;;;;18.63;9.95;;;;;;;;;;5014521;28;20279;-71
2022/11/14 08:06:18;;;;;;;18.27;10.10;;;;;;;;;;5008407;28;20014;-70
2022/11/14 08:08:43;;;;;;;21.70;10.40;;;;;;;;;;5009691;28;20278;-70
2022/11/14 08:11:09;;;;;;;17.92;9.93;;;;;;;;;;5009958;28;20032;-70
2022/11/14 08:13:34;;;;;;;24.27;11.05;;;;;;;;;;5009798;28;20392;-71
2022/11/14 08:16:07;;;;;;;20.77;10.90;;;;;;;;;;5010846;28;20030;-70
2022/11/14 08:18:32;;;;;;;22.08;11.40;;;;;;;;;;5006427;28;20283;-71
2022/11/14 08:20:58;;;;;;;25.43;12.20;;;;;;;;;;5004922;28;20100;-70
2022/11/14 08:23:23;;;;;;;19.85;10.75;;;;;;;;;;4996060;28;20314;-70
2022/11/14 08:25:48;;;;;;;23.65;11.40;;;;;;;;;;5010092;28;20584;-71
2022/11/14 08:28:13;;;;;;;17.23;10.20;;;;;;;;;;5010664;28;20044;-70
2022/11/14 08:30:39;;;;;;;18.30;10.60;;;;;;;;;;5010124;28;20057;-70
2022/11/14 08:33:05;;;;;;;23.17;9.80;;;;;;;;;;5009004;28;20029;-70
2022/11/14 08:35:31;;;;;;;18.50;9.38;;;;;;;;;;5012968;28;20317;-70
2022/11/14 08:37:56;;;;;;;18.17;9.80;;;;;;;;;;5012775;28;20030;-71
2022/11/14 08:40:22;;;;;;;22.67;11.10;;;;;;;;;;5011735;28;20434;-69
2022/11/14 08:42:47;;;;;;;18.37;9.97;;;;;;;;;;5005668;28;20804;-69
2022/11/14 08:45:12;;;;;;;16.27;8.97;;;;;;;;;;5012864;28;20079;-71
2022/11/14 08:47:37;;;;;;;16.43;8.50;;;;;;;;;;5009843;28;20057;-70
2022/11/14 08:50:03;;;;;;;15.93;9.75;;;;;;;;;;5006656;28;20026;-69
2022/11/14 08:52:28;;;;;;;18.80;10.10;;;;;;;;;;5009847;28;20026;-69
2022/11/14 08:54:53;;;;;;;15.87;8.83;;;;;;;;;;5014760;28;20555;-70
2022/11/14 08:57:19;;;;;;;16.43;8.83;;;;;;;;;;5007349;28;20395;-70
2022/11/14 08:59:44;;;;;;;19.03;8.93;;;;;;;;;;5011281;28;20042;-71
2022/11/14 09:02:10;;;;;;;15.27;9.27;;;;;;;;;;5010194;28;20021;-70
2022/11/14 09:04:35;;;;;;;19.20;10.55;;;;;;;;;;5008387;28;20037;-70
2022/11/14 09:07:00;;;;;;;21.17;9.93;;;;;;;;;;5011399;28;20030;-71
2022/11/14 09:09:25;;;;;;;15.70;8.73;;;;;;;;;;5005753;28;20029;-70
2022/11/14 09:11:51;;;;;;;18.17;9.20;;;;;;;;;;5011888;28;20034;-70
2022/11/14 09:14:16;;;;;;;14.07;8.70;;;;;;;;;;5010650;28;20040;-70
2022/11/14 09:16:41;;;;;;;15.77;8.80;;;;;;;;;;5009041;28;20025;-70
2022/11/14 09:19:06;;;;;;;12.13;8.13;;;;;;;;;;5004052;28;20410;-71
2022/11/14 09:21:32;;;;;;;14.13;8.23;;;;;;;;;;5012251;28;20021;-71
2022/11/14 09:23:57;;;;;;;15.43;8.67;;;;;;;;;;5006424;28;20283;-70
2022/11/14 09:26:22;;;;;;;17.17;8.20;;;;;;;;;;5011166;28;20148;-71
2022/11/14 09:28:47;;;;;;;15.50;8.30;;;;;;;;;;5007410;28;20034;-70
2022/11/14 09:31:12;;;;;;;13.27;7.90;;;;;;;;;;5009552;28;20644;-70
2022/11/14 09:33:38;;;;;;;13.70;7.50;;;;;;;;;;5010576;28;20302;-71
2022/11/14 09:36:05;;;;;;;13.55;8.55;;;;;;;;;;5009816;28;20033;-70
2022/11/14 09:38:30;;;;;;;14.43;8.35;;;;;;;;;;5003635;28;20492;-70
2022/11/14 09:41:08;;;;;;;13.43;8.05;;;;;;;;;;4995021;28;20030;-70
2022/11/14 09:43:46;;;;;;;10.85;7.03;;;;;;;;;;5006659;28;20074;-70
2022/11/14 09:46:20;;;;;;;14.10;7.25;;;;;;;;;;5006028;28;20061;-69
2022/11/14 09:48:46;;;;;;;12.00;7.72;;;;;;;;;;5010662;28;21381;-71
2022/11/14 09:51:15;;;;;;;11.98;7.03;;;;;;;;;;5006781;28;20030;-70
2022/11/14 09:53:49;;;;;;;12.77;7.55;;;;;;;;;;5010436;28;20040;-70
2022/11/14 09:56:18;;;;;;;12.90;7.40;;;;;;;;;;5007849;28;20057;-70
2022/11/14 09:58:43;;;;;;;15.32;7.30;;;;;;;;;;5007398;28;20164;-70
2022/11/14 10:01:11;;;;;;;15.10;7.53;;;;;;;;;;5003492;28;21095;-70
2022/11/14 10:03:43;;;;;;;17.10;8.23;;;;;;;;;;5009470;28;20286;-70
2022/11/14 10:06:17;;;;;;;14.40;8.10;;;;;;;;;;5006574;28;20042;-70
2022/11/14 10:09:02;;;;;;;14.45;7.97;;;;;;;;;;4989203;28;20026;-70
2022/11/14 10:11:27;;;;;;;16.83;9.00;;;;;;;;;;5008773;28;20041;-70
2022/11/14 10:14:25;;;;;;;13.63;7.60;;;;;;;;;;5007899;28;20479;-70
2022/11/14 10:17:01;;;;;;;15.52;8.80;;;;;;;;;;4971769;28;20034;-70
2022/11/14 10:19:45;;;;;;;13.32;8.23;;;;;;;;;;5008885;28;20072;-71
2022/11/14 10:22:29;;;;;;;14.35;7.75;;;;;;;;;;5011152;28;20030;-71
2022/11/14 10:25:13;;;;;;;15.60;5.90;;;;;;;;;;5006140;28;20037;-70
2022/11/14 10:27:45;;;;;;;7.95;5.68;;;;;;;;;;4989787;28;20439;-70
2022/11/14 10:30:17;;;;;;;12.30;6.43;;;;;;;;;;5007717;28;20029;-71
2022/11/14 10:32:58;;;;;;;10.63;6.50;;;;;;;;;;5011659;28;20033;-71
2022/11/14 10:35:39;;;;;;;11.30;6.25;;;;;;;;;;5004645;28;20046;-70
2022/11/14 10:38:20;;;;;;;13.00;5.95;;;;;;;;;;5004967;28;20038;-71
2022/11/14 10:40:45;;;;;;;10.32;6.05;;;;;;;;;;5011636;28;20048;-70
2022/11/14 10:43:17;;;;;;;10.60;5.33;;;;;;;;;;5000534;28;20507;-70
2022/11/14 10:45:45;;;;;;;13.80;5.68;;;;;;;;;;5005420;28;20236;-70
2022/11/14 10:48:13;;;;;;;10.20;6.20;;;;;;;;;;5003587;28;20253;-71
2022/11/14 10:50:45;;;;;;;12.05;5.60;;;;;;;;;;5008593;28;20026;-70
2022/11/14 10:53:18;;;;;;;9.38;5.85;;;;;;;;;;5009227;28;20022;-70
2022/11/14 10:55:45;;;;;;;10.63;5.88;;;;;;;;;;5007291;28;20534;-70
2022/11/14 10:58:13;;;;;;;10.65;5.45;;;;;;;14.18;nan;101394.97;5007535;28;20079;-70
2022/11/14 11:00:38;;;;;;;18.63;6.35;;;;;;;;;;4988634;28;20042;-70
2022/11/14 11:03:04;;;;;;;15.40;5.97;;;;;;;;;;5010621;28;20021;-70
2022/11/14 11:05:29;;;;;;;10.13;6.00;;;;;;;;;;4990211;28;20026;-71
2022/11/14 11:13:32;;;;;;;13.18;6.13;;;;;;;;;;5005322;28;20033;-69
2022/11/14 11:15:58;;;;;;;13.80;5.78;;;;;;;;;;5011751;28;20036;-71
2022/11/14 11:18:41;;;;;;;11.07;5.75;;;;;;;;;;5004039;28;20026;-70
2022/11/14 11:21:07;;;;;;;8.77;5.55;;;;;;;;;;5010222;28;20057;-71
2022/11/14 11:23:33;;;;;;;8.93;5.47;;;;;;;;;;5007301;28;20068;-70
2022/11/14 11:26:16;;;;;;;10.32;6.00;;;;;;;;;;5004018;28;20796;-71
2022/11/14 11:28:42;;;;;;;8.75;5.38;;;;;;;;;;5004905;28;20030;-70
2022/11/14 11:31:08;;;;;;;10.40;6.03;;;;;;;;;;5009972;28;20034;-71
2022/11/14 11:33:35;;;;;;;11.95;6.10;;;;;;;;;;5012269;28;20109;-70
2022/11/14 11:36:06;;;;;;;11.05;6.35;;;;;;;;;;4994195;28;20037;-69
2022/11/14 11:38:32;;;;;;;9.93;6.65;;;;;;;;;;5012018;28;20369;-70
2022/11/14 11:41:20;;;;;;;10.90;5.80;;;;;;;;;;5012876;28;20080;-71
2022/11/14 11:43:46;;;;;;;11.07;6.85;;;;;;;;;;4999860;28;20087;-70
2022/11/14 11:46:17;;;;;;;10.50;6.50;;;;;;;;;;5015713;28;20025;-69
2022/11/14 11:48:45;;;;;;;11.23;6.30;;;;;;;;;;5014375;28;20022;-69
2022/11/14 11:51:16;;;;;;;9.32;6.47;;;;;;;;;;5006212;28;20392;-69
2022/11/14 11:53:43;;;;;;;9.40;5.78;;;;;;;;;;5014733;28;20021;-70
2022/11/14 11:56:13;;;;;;;9.88;6.10;;;;;;;;;;5013287;28;20026;-70
2022/11/14 11:58:46;;;;;;;11.15;5.95;;;;;;;;;;5013318;28;20083;-70
2022/11/14 12:01:12;;;;;;;8.68;5.32;;;;;;;;;;5006252;28;20049;-69
2022/11/14 12:03:38;;;;;;;14.60;6.32;;;;;;;;;;4995128;28;20038;-69
2022/11/14 12:06:06;;;;;;;13.52;7.03;;;;;;;;;;5014131;28;20091;-70
2022/11/14 12:08:40;;;;;;;10.20;6.00;;;;;;;;;;4998074;28;20026;-69
2022/11/14 12:11:08;;;;;;;10.55;6.38;;;;;;;;;;5011409;28;20029;-70
2022/11/14 12:13:48;;;;;;;15.95;7.18;;;;;;;;;;5011025;28;20084;-70
2022/11/14 12:16:19;;;;;;;18.08;7.18;;;;;;;;;;5011012;28;20026;-71
2022/11/14 12:19:03;;;;;;;11.43;6.72;;;;;;;;;;5005283;28;20135;-70
2022/11/14 12:21:37;;;;;;;10.43;6.50;;;;;;;;;;5011386;28;20129;-70
2022/11/14 12:24:22;;;;;;;11.30;6.65;;;;;;;;;;5014161;28;20122;-70
2022/11/14 12:26:52;;;;;;;18.33;7.07;;;;;;;;;;5009912;28;20086;-68
2022/11/14 12:29:23;;;;;;;14.80;7.10;;;;;;;;;;5010015;28;20415;-69
2022/11/14 12:31:50;;;;;;;16.95;7.20;;;;;;;;;;5006888;28;20026;-71
2022/11/14 12:34:26;;;;;;;13.15;6.93;;;;;;;;;;5012354;28;20425;-70
2022/11/14 12:36:51;;;;;;;13.13;7.18;;;;;;;;;;5008927;28;20116;-70
2022/11/14 12:39:21;;;;;;;11.25;7.35;;;;;;;;;;5010246;28;20026;-70
2022/11/14 12:41:46;;;;;;;13.05;6.82;;;;;;;;;;5006339;28;20044;-71
2022/11/14 12:44:16;;;;;;;14.38;7.30;;;;;;;;;;5010545;28;20030;-70
2022/11/14 12:47:20;;;;;;;11.93;7.43;;;;;;;;;;5006797;28;20446;-69
2022/11/14 12:49:48;;;;;;;11.60;7.30;;;;;;;;;;4945335;28;20557;-71
2022/11/14 12:52:32;;;;;;;10.13;6.95;;;;;;;;;;4948221;28;20047;-71
2022/11/14 12:54:57;;;;;;;14.13;7.85;;;;;;;;;;4952969;28;20128;-70
2022/11/14 12:57:46;;;;;;;14.07;7.50;;;;;;;16.25;nan;101322.31;4946367;28;20517;-71
2022/11/14 13:00:12;;;;;;;13.60;8.07;;;;;;;;;;4947699;28;20125;-70
2022/11/14 13:02:37;;;;;;;18.73;7.80;;;;;;;;;;4946720;28;20126;-70
2022/11/14 13:05:13;;;;;;;13.70;7.30;;;;;;;;;;4948931;28;20163;-71
2022/11/14 13:07:38;;;;;;;11.20;7.70;;;;;;;;;;4929845;29;20039;-68
2022/11/14 13:10:15;;;;;;;11.90;8.13;;;;;;;;;;4932333;28;20043;-70
2022/11/14 13:23:59;;;;;;;13.90;7.32;;;;;;;;;;5008189;28;20037;-70
2022/11/14 13:26:25;;;;;;;11.63;7.25;;;;;;;;;;5007121;28;20030;-70
2022/11/14 13:28:50;;;;;;;15.47;7.67;;;;;;;;;;5010246;28;20022;-70
2022/11/14 13:31:16;;;;;;;10.30;7.05;;;;;;;;;;5013163;28;20113;-70
2022/11/14 13:33:42;;;;;;;11.80;7.07;;;;;;;;;;5006143;28;20424;-70
2022/11/14 13:36:26;;;;;;;9.80;7.13;;;;;;;;;;5015465;28;20033;-70
2022/11/14 13:39:10;;;;;;;10.82;6.78;;;;;;;;;;5011193;28;20030;-70
2022/11/14 13:41:35;;;;;;;11.57;7.38;;;;;;;;;;5008945;28;20388;-70
2022/11/14 13:44:01;;;;;;;11.17;7.40;;;;;;;;;;5009123;28;20032;-70
2022/11/14 13:46:26;;;;;;;11.87;7.33;;;;;;;;;;5006974;28;20030;-69
2022/11/14 13:48:54;;;;;;;10.23;7.27;;;;;;;;;;5014088;28;20026;-70
2022/11/14 13:51:21;;;;;;;12.02;7.50;;;;;;;;;;5005126;28;20030;-70
2022/11/14 13:53:46;;;;;;;10.07;7.13;;;;;;;;;;5006745;28;20025;-70
2022/11/14 13:56:23;;;;;;;12.73;7.83;;;;;;;;;;5010131;28;20034;-70
2022/11/14 13:59:06;;;;;;;12.57;7.78;;;;;;;;;;5011404;28;20129;-70
2022/11/14 14:01:41;;;;;;;11.20;7.80;;;;;;;;;;5011624;28;20148;-71
2022/11/14 14:04:16;;;;;;;13.15;8.05;;;;;;;;;;5005156;28;20029;-70
2022/11/14 14:06:56;;;;;;;18.08;7.80;;;;;;;;;;5010965;28;20029;-70
2022/11/14 14:09:21;;;;;;;13.52;7.95;;;;;;;;;;5001539;28;20052;-70
2022/11/14 14:11:59;;;;;;;13.47;7.63;;;;;;;;;;5004761;28;20029;-70
2022/11/14 14:14:34;;;;;;;13.30;7.38;;;;;;;;;;5010948;28;20021;-71
2022/11/14 14:17:20;;;;;;;11.68;7.57;;;;;;;;;;5003266;28;20044;-70
2022/11/14 14:19:58;;;;;;;12.90;8.05;;;;;;;;;;5010542;28;20056;-70
2022/11/14 14:22:41;;;;;;;11.57;7.55;;;;;;;;;;5012115;28;20753;-70
2022/11/14 14:25:13;;;;;;;11.00;7.65;;;;;;;;;;5007252;28;20062;-70
2022/11/14 14:27:38;;;;;;;12.57;7.55;;;;;;;;;;5008024;28;20033;-70
2022/11/14 14:30:10;;;;;;;11.90;8.00;;;;;;;;;;5008027;28;20022;-71
2022/11/14 14:32:35;;;;;;;12.98;7.45;;;;;;;;;;5006957;28;20021;-70
2022/11/14 14:35:19;;;;;;;16.97;8.10;;;;;;;;;;5009412;28;20120;-70
2022/11/14 14:37:52;;;;;;;12.13;7.15;;;;;;;;;;5002490;28;20053;-70
2022/11/14 14:40:25;;;;;;;12.73;7.68;;;;;;;;;;5008139;28;20022;-70